createdAt,value
2018-11-05T00:00:44.475Z,9.40
2018-11-05T00:03:18.561Z,9.30
2018-11-05T00:05:52.935Z,9.30
2018-11-05T00:08:27.584Z,9.30
2018-11-05T00:11:01.862Z,9.20
2018-11-05T00:13:36.552Z,9.20
2018-11-05T00:16:10.696Z,9.10
2018-11-05T00:18:44.786Z,9.10
2018-11-05T00:21:19.513Z,9.00
2018-11-05T00:23:53.583Z,9.00
2018-11-05T00:26:27.694Z,8.90
2018-11-05T00:29:02.496Z,8.90
2018-11-05T00:31:36.526Z,8.80
2018-11-05T00:34:10.556Z,8.70
2018-11-05T00:36:44.396Z,8.70
2018-11-05T00:39:19.247Z,8.70
2018-11-05T00:41:53.337Z,8.70
2018-11-05T00:44:27.778Z,8.60
2018-11-05T00:47:02.764Z,8.60
2018-11-05T00:49:37.496Z,8.60
2018-11-05T00:52:12.521Z,8.60
2018-11-05T00:54:46.346Z,8.60
2018-11-05T00:57:20.894Z,8.60
2018-11-05T00:59:54.982Z,8.60
2018-11-05T01:02:29.297Z,8.60
2018-11-05T01:05:04.282Z,8.60
2018-11-05T01:07:39.516Z,8.60
2018-11-05T01:10:14.874Z,8.60
2018-11-05T01:12:48.913Z,8.60
2018-11-05T01:15:24.004Z,8.70
2018-11-05T01:17:58.213Z,8.70
2018-11-05T01:20:32.218Z,8.70
2018-11-05T01:23:06.311Z,8.70
2018-11-05T01:25:40.449Z,8.80
2018-11-05T01:28:14.824Z,8.90
2018-11-05T01:30:48.949Z,8.90
2018-11-05T01:33:23.439Z,8.90
2018-11-05T01:35:59.013Z,8.90
2018-11-05T01:38:32.943Z,9.00
2018-11-05T01:41:06.985Z,9.00
2018-11-05T01:43:41.354Z,9.10
2018-11-05T01:46:15.917Z,9.10
2018-11-05T01:48:50.512Z,9.10
2018-11-05T01:51:24.693Z,9.10
2018-11-05T01:53:59.023Z,9.10
2018-11-05T01:56:33.431Z,9.10
2018-11-05T01:59:07.627Z,9.10
2018-11-05T02:01:42.023Z,9.20
2018-11-05T02:04:16.957Z,9.20
2018-11-05T02:06:51.173Z,9.20
2018-11-05T02:09:25.492Z,9.20
2018-11-05T02:12:00.102Z,9.00
2018-11-05T02:14:35.141Z,8.90
2018-11-05T02:17:09.606Z,8.90
2018-11-05T02:19:44.384Z,8.90
2018-11-05T02:22:18.500Z,9.00
2018-11-05T02:24:52.798Z,8.90
2018-11-05T02:27:27.447Z,8.90
2018-11-05T02:30:01.445Z,8.90
2018-11-05T02:32:35.481Z,8.90
2018-11-05T02:35:11.798Z,9.00
2018-11-05T02:37:46.689Z,9.00
2018-11-05T02:40:21.111Z,9.10
2018-11-05T02:42:56.130Z,9.10
2018-11-05T02:45:30.241Z,9.20
2018-11-05T02:48:04.277Z,9.20
2018-11-05T02:50:38.657Z,9.20
2018-11-05T02:53:13.482Z,9.30
2018-11-05T02:55:47.811Z,9.20
2018-11-05T02:58:22.813Z,9.20
2018-11-05T03:00:57.366Z,9.20
2018-11-05T03:03:31.640Z,9.30
2018-11-05T03:06:05.887Z,9.30
2018-11-05T03:08:40.111Z,9.40
2018-11-05T03:11:15.018Z,9.40
2018-11-05T03:13:49.112Z,9.40
2018-11-05T03:16:26.491Z,9.50
2018-11-05T03:19:00.418Z,9.60
2018-11-05T03:21:34.606Z,9.60
2018-11-05T03:24:09.442Z,9.60
2018-11-05T03:26:43.702Z,9.70
2018-11-05T03:29:18.662Z,9.70
2018-11-05T03:31:52.982Z,9.70
2018-11-05T03:34:27.278Z,9.70
2018-11-05T03:37:01.888Z,9.70
2018-11-05T03:39:36.453Z,9.80
2018-11-05T03:42:11.376Z,9.80
2018-11-05T03:44:45.236Z,9.80
2018-11-05T03:47:19.523Z,9.80
2018-11-05T03:49:53.558Z,9.80
2018-11-05T03:52:28.410Z,9.80
2018-11-05T03:55:03.547Z,9.80
2018-11-05T03:57:37.622Z,9.80
2018-11-05T04:00:13.661Z,9.80
2018-11-05T04:02:47.827Z,9.90
2018-11-05T04:05:21.896Z,9.90
2018-11-05T04:07:56.118Z,9.90
2018-11-05T04:10:30.269Z,9.90
2018-11-05T04:13:04.813Z,9.90
2018-11-05T04:15:39.012Z,10.00
2018-11-05T04:18:13.087Z,10.00
2018-11-05T04:20:47.145Z,10.00
2018-11-05T04:23:20.953Z,10.00
2018-11-05T04:25:55.513Z,10.00
2018-11-05T04:28:30.353Z,10.00
2018-11-05T04:31:04.757Z,10.00
2018-11-05T04:33:39.037Z,10.00
2018-11-05T04:36:13.362Z,10.00
2018-11-05T04:38:47.402Z,10.10
2018-11-05T04:41:21.287Z,10.10
2018-11-05T04:43:55.705Z,10.10
2018-11-05T04:46:29.607Z,10.10
2018-11-05T04:49:04.180Z,10.10
2018-11-05T04:51:41.655Z,10.10
2018-11-05T04:54:15.572Z,10.10
2018-11-05T04:56:50.682Z,10.10
2018-11-05T04:59:24.741Z,10.10
2018-11-05T05:01:59.064Z,10.10
2018-11-05T05:04:33.283Z,10.10
2018-11-05T05:07:07.254Z,10.20
2018-11-05T05:09:41.211Z,10.20
2018-11-05T05:12:15.873Z,10.10
2018-11-05T05:14:49.885Z,10.20
2018-11-05T05:17:24.083Z,10.20
2018-11-05T05:19:58.207Z,10.20
2018-11-05T05:22:32.320Z,10.20
2018-11-05T05:25:07.622Z,10.20
2018-11-05T05:27:41.560Z,10.20
2018-11-05T05:30:17.848Z,10.20
2018-11-05T05:32:52.051Z,10.20
2018-11-05T05:35:26.691Z,10.20
2018-11-05T05:38:01.106Z,10.20
2018-11-05T05:40:35.564Z,10.20
2018-11-05T05:43:09.636Z,10.20
2018-11-05T05:45:43.738Z,10.20
2018-11-05T05:48:18.314Z,10.20
2018-11-05T05:50:52.607Z,10.20
2018-11-05T05:53:26.700Z,10.20
2018-11-05T05:56:00.867Z,10.20
2018-11-05T05:58:35.007Z,10.20
2018-11-05T06:01:10.533Z,10.20
2018-11-05T06:03:45.485Z,10.20
2018-11-05T06:06:20.197Z,10.20
2018-11-05T06:08:54.249Z,10.20
2018-11-05T06:11:28.261Z,10.20
2018-11-05T06:14:03.785Z,10.30
2018-11-05T06:16:37.819Z,10.30
2018-11-05T06:19:12.073Z,10.40
2018-11-05T06:21:46.439Z,10.40
2018-11-05T06:24:20.468Z,10.40
2018-11-05T06:26:54.851Z,10.40
2018-11-05T06:29:29.297Z,10.50
2018-11-05T06:32:04.071Z,10.50
2018-11-05T06:34:38.392Z,10.50
2018-11-05T06:37:12.410Z,10.50
2018-11-05T06:39:46.727Z,10.50
2018-11-05T06:42:21.275Z,10.50
2018-11-05T06:44:56.509Z,10.50
2018-11-05T06:47:30.601Z,10.60
2018-11-05T06:50:07.570Z,10.60
2018-11-05T06:52:42.830Z,10.60
2018-11-05T06:55:16.932Z,10.60
2018-11-05T06:57:51.226Z,10.60
2018-11-05T07:00:25.947Z,10.60
2018-11-05T07:03:01.029Z,10.60
2018-11-05T07:05:35.268Z,10.60
2018-11-05T07:08:09.477Z,10.60
2018-11-05T07:10:43.614Z,10.60
2018-11-05T07:13:17.851Z,10.60
2018-11-05T07:15:53.724Z,10.60
2018-11-05T07:18:27.805Z,10.70
2018-11-05T07:21:02.020Z,10.70
2018-11-05T07:23:36.156Z,10.70
2018-11-05T07:26:10.225Z,10.70
2018-11-05T07:28:44.331Z,10.80
2018-11-05T07:31:18.778Z,10.80
2018-11-05T07:33:53.883Z,10.80
2018-11-05T07:36:29.400Z,10.90
2018-11-05T07:39:05.336Z,10.90
2018-11-05T07:41:39.957Z,10.90
2018-11-05T07:44:14.782Z,11.00
2018-11-05T07:46:49.582Z,11.00
2018-11-05T07:49:24.283Z,11.10
2018-11-05T07:51:59.856Z,11.10
2018-11-05T07:54:34.756Z,11.10
2018-11-05T07:57:09.452Z,11.20
2018-11-05T07:59:43.876Z,11.20
2018-11-05T08:02:17.979Z,11.20
2018-11-05T08:04:52.849Z,11.30
2018-11-05T08:07:27.815Z,11.30
2018-11-05T08:10:02.337Z,11.30
2018-11-05T08:12:36.951Z,11.30
2018-11-05T08:15:15.069Z,11.40
2018-11-05T08:17:51.066Z,11.40
2018-11-05T08:20:25.051Z,11.40
2018-11-05T08:22:59.235Z,11.40
2018-11-05T08:25:33.365Z,11.40
2018-11-05T08:28:07.587Z,11.50
2018-11-05T08:30:41.926Z,11.50
2018-11-05T08:33:15.949Z,11.50
2018-11-05T08:35:50.086Z,11.60
2018-11-05T08:38:24.306Z,11.60
2018-11-05T08:40:58.780Z,11.60
2018-11-05T08:43:33.555Z,11.60
2018-11-05T08:46:07.428Z,11.70
2018-11-05T08:48:42.740Z,11.70
2018-11-05T08:51:17.250Z,11.80
2018-11-05T08:53:51.035Z,11.80
2018-11-05T08:56:25.077Z,11.80
2018-11-05T08:58:59.248Z,11.80
2018-11-05T09:01:34.146Z,11.90
2018-11-05T09:04:09.122Z,11.90
2018-11-05T09:06:43.395Z,11.90
2018-11-05T09:09:18.216Z,12.00
2018-11-05T09:11:52.526Z,12.00
2018-11-05T09:14:26.614Z,12.00
2018-11-05T09:17:00.780Z,12.10
2018-11-05T09:19:35.595Z,12.10
2018-11-05T09:22:10.323Z,12.10
2018-11-05T09:24:44.727Z,12.20
2018-11-05T09:27:19.567Z,12.20
2018-11-05T09:29:53.658Z,12.30
2018-11-05T09:32:28.024Z,12.30
2018-11-05T09:35:02.439Z,12.40
2018-11-05T09:37:36.206Z,12.40
2018-11-05T09:40:14.231Z,12.40
2018-11-05T09:42:48.379Z,12.40
2018-11-05T09:45:25.586Z,12.50
2018-11-05T09:47:59.592Z,12.60
2018-11-05T09:50:33.858Z,12.60
2018-11-05T09:53:08.806Z,12.60
2018-11-05T09:55:43.025Z,12.60
2018-11-05T09:58:17.196Z,12.60
2018-11-05T10:00:52.140Z,12.70
2018-11-05T10:03:26.734Z,12.70
2018-11-05T10:06:00.696Z,12.70
2018-11-05T10:08:34.805Z,12.70
2018-11-05T10:11:09.712Z,12.70
2018-11-05T10:13:43.627Z,12.70
2018-11-05T10:16:18.141Z,12.70
2018-11-05T10:18:52.413Z,12.80
2018-11-05T10:21:26.942Z,12.80
2018-11-05T10:24:01.962Z,12.80
2018-11-05T10:26:36.788Z,12.90
2018-11-05T10:29:11.801Z,13.00
2018-11-05T10:31:45.946Z,13.10
2018-11-05T10:34:21.036Z,13.10
2018-11-05T10:36:56.142Z,13.20
2018-11-05T10:39:30.161Z,13.30
2018-11-05T10:42:04.937Z,13.40
2018-11-05T10:44:39.040Z,13.50
2018-11-05T10:47:14.506Z,13.50
2018-11-05T10:49:48.776Z,13.40
2018-11-05T10:52:23.101Z,13.40
2018-11-05T10:54:58.004Z,13.40
2018-11-05T10:57:32.004Z,13.30
2018-11-05T11:00:29.295Z,13.40
2018-11-05T11:03:09.252Z,13.40
2018-11-05T11:05:43.296Z,13.50
2018-11-05T11:08:18.402Z,13.50
2018-11-05T11:10:53.141Z,13.60
2018-11-05T11:13:27.336Z,13.60
2018-11-05T11:16:01.656Z,13.60
2018-11-05T11:18:35.779Z,13.70
2018-11-05T11:21:10.144Z,13.70
2018-11-05T11:23:44.826Z,13.80
2018-11-05T11:26:19.085Z,13.90
2018-11-05T11:28:53.395Z,13.90
2018-11-05T11:31:28.511Z,14.00
2018-11-05T11:34:02.329Z,14.00
2018-11-05T11:36:36.711Z,14.00
2018-11-05T11:39:11.796Z,14.10
2018-11-05T11:41:46.188Z,14.20
2018-11-05T11:44:21.355Z,14.30
2018-11-05T11:46:55.746Z,14.30
2018-11-05T11:49:30.042Z,14.40
2018-11-05T11:52:04.972Z,14.40
2018-11-05T11:54:40.042Z,14.40
2018-11-05T11:57:14.316Z,14.50
2018-11-05T11:59:48.625Z,14.50
2018-11-05T12:02:22.553Z,14.60
2018-11-05T12:04:56.850Z,14.60
2018-11-05T12:07:31.145Z,14.70
2018-11-05T12:10:08.531Z,14.70
2018-11-05T12:12:43.215Z,14.80
2018-11-05T12:15:18.372Z,14.80
2018-11-05T12:17:53.736Z,14.90
2018-11-05T12:20:28.129Z,14.80
2018-11-05T12:23:02.309Z,14.90
2018-11-05T12:25:36.615Z,14.90
2018-11-05T12:28:11.124Z,15.00
2018-11-05T12:30:45.460Z,15.00
2018-11-05T12:33:19.890Z,15.10
2018-11-05T12:35:53.902Z,15.20
2018-11-05T12:38:28.192Z,15.30
2018-11-05T12:41:02.687Z,15.30
2018-11-05T12:43:36.960Z,15.40
2018-11-05T12:46:11.451Z,15.40
2018-11-05T12:48:45.527Z,15.40
2018-11-05T12:51:19.794Z,15.40
2018-11-05T12:53:54.015Z,15.40
2018-11-05T12:56:28.148Z,15.40
2018-11-05T12:59:02.310Z,15.50
2018-11-05T13:01:43.167Z,15.50
2018-11-05T13:04:17.421Z,15.50
2018-11-05T13:06:51.330Z,15.50
2018-11-05T13:09:26.603Z,15.50
2018-11-05T13:12:00.844Z,15.60
2018-11-05T13:14:34.714Z,15.60
2018-11-05T13:17:09.082Z,15.60
2018-11-05T13:19:43.130Z,15.50
2018-11-05T13:22:17.591Z,15.60
2018-11-05T13:24:51.655Z,15.60
2018-11-05T13:27:25.801Z,15.60
2018-11-05T13:29:59.920Z,15.60
2018-11-05T13:32:33.936Z,15.60
2018-11-05T13:35:09.986Z,15.60
2018-11-05T13:37:44.612Z,15.50
2018-11-05T13:40:20.537Z,15.60
2018-11-05T13:42:54.729Z,15.50
2018-11-05T13:45:29.099Z,15.50
2018-11-05T13:48:04.000Z,15.50
2018-11-05T13:50:37.634Z,15.40
2018-11-05T13:53:11.855Z,15.40
2018-11-05T13:55:46.161Z,15.40
2018-11-05T13:58:20.489Z,15.40
2018-11-05T14:00:54.583Z,15.50
2018-11-05T14:03:28.715Z,15.70
2018-11-05T14:06:03.115Z,16.00
2018-11-05T14:08:38.428Z,16.10
2018-11-05T14:11:12.772Z,16.30
2018-11-05T14:13:47.147Z,16.50
2018-11-05T14:16:21.970Z,16.60
2018-11-05T14:18:56.199Z,16.60
2018-11-05T14:21:30.980Z,16.60
2018-11-05T14:24:05.407Z,16.60
2018-11-05T14:26:39.423Z,16.70
2018-11-05T14:29:14.318Z,16.80
2018-11-05T14:31:49.074Z,16.90
2018-11-05T14:34:23.182Z,16.80
2018-11-05T14:36:57.717Z,16.80
2018-11-05T14:39:31.849Z,16.80
2018-11-05T14:42:06.350Z,16.80
2018-11-05T14:44:40.464Z,16.80
2018-11-05T14:47:15.489Z,16.70
2018-11-05T14:49:50.360Z,16.50
2018-11-05T14:52:25.171Z,16.40
2018-11-05T14:54:59.119Z,16.30
2018-11-05T14:57:33.305Z,16.10
2018-11-05T15:00:12.600Z,15.90
2018-11-05T15:02:47.332Z,15.70
2018-11-05T15:05:21.712Z,15.50
2018-11-05T15:07:56.095Z,15.30
2018-11-05T15:10:30.605Z,15.10
2018-11-05T15:13:05.491Z,14.90
2018-11-05T15:15:40.080Z,14.70
2018-11-05T15:18:14.181Z,14.60
2018-11-05T15:20:49.017Z,14.40
2018-11-05T15:23:24.071Z,14.20
2018-11-05T15:25:58.708Z,14.10
2018-11-05T15:28:33.081Z,14.00
2018-11-05T15:31:07.356Z,14.00
2018-11-05T15:33:41.317Z,13.80
2018-11-05T15:36:16.742Z,13.70
2018-11-05T15:38:51.272Z,13.60
2018-11-05T15:41:25.931Z,13.50
2018-11-05T15:44:00.041Z,13.40
2018-11-05T15:46:34.205Z,13.30
2018-11-05T15:49:08.538Z,13.10
2018-11-05T15:51:44.002Z,12.90
2018-11-05T15:54:17.806Z,12.80
2018-11-05T15:56:52.529Z,12.70
2018-11-05T15:59:26.576Z,12.70
2018-11-05T16:02:05.250Z,12.70
2018-11-05T16:04:40.435Z,12.70
2018-11-05T16:07:14.652Z,12.60
2018-11-05T16:09:49.775Z,12.60
2018-11-05T16:12:24.342Z,12.50
2018-11-05T16:14:58.633Z,12.50
2018-11-05T16:17:33.853Z,12.50
2018-11-05T16:20:14.991Z,12.40
2018-11-05T16:22:50.633Z,12.40
2018-11-05T16:25:25.160Z,12.30
2018-11-05T16:27:59.220Z,12.30
2018-11-05T16:30:33.368Z,12.20
2018-11-05T16:33:07.719Z,12.20
2018-11-05T16:35:42.321Z,12.10
2018-11-05T16:38:16.426Z,12.00
2018-11-05T16:40:51.018Z,12.00
2018-11-05T16:43:25.493Z,12.00
2018-11-05T16:46:00.715Z,11.90
2018-11-05T16:48:35.535Z,11.90
2018-11-05T16:51:09.639Z,11.80
2018-11-05T16:53:43.977Z,11.80
2018-11-05T16:56:18.744Z,11.80
2018-11-05T16:58:54.243Z,11.70
2018-11-05T17:01:29.041Z,11.50
2018-11-05T17:04:03.171Z,11.50
2018-11-05T17:06:37.444Z,11.40
2018-11-05T17:09:12.434Z,11.30
2018-11-05T17:11:47.111Z,11.30
2018-11-05T17:14:22.125Z,11.20
2018-11-05T17:16:56.509Z,11.10
2018-11-05T17:19:31.269Z,11.10
2018-11-05T17:22:06.684Z,11.10
2018-11-05T17:24:41.311Z,11.00
2018-11-05T17:27:16.752Z,11.00
2018-11-05T17:29:51.620Z,10.90
2018-11-05T17:35:26.439Z,10.90
2018-11-05T17:38:00.562Z,10.80
2018-11-05T17:40:35.529Z,10.80
2018-11-05T17:43:10.433Z,10.80
2018-11-05T17:45:44.752Z,10.80
2018-11-05T17:48:19.844Z,10.60
2018-11-05T17:50:55.270Z,10.50
2018-11-05T17:53:29.405Z,10.40
2018-11-05T17:56:03.890Z,10.30
2018-11-05T17:58:38.424Z,10.20
2018-11-05T18:01:12.968Z,10.20
2018-11-05T18:03:48.070Z,10.10
2018-11-05T18:06:23.121Z,10.10
2018-11-05T18:08:58.684Z,10.10
2018-11-05T18:11:33.511Z,10.10
2018-11-05T18:14:08.045Z,10.10
2018-11-05T18:16:42.916Z,10.10
2018-11-05T18:19:17.922Z,10.10
2018-11-05T18:21:53.003Z,10.10
2018-11-05T18:24:27.861Z,9.90
2018-11-05T18:27:02.091Z,9.80
2018-11-05T18:29:36.547Z,9.70
2018-11-05T18:32:16.400Z,9.70
2018-11-05T18:34:52.439Z,9.60
2018-11-05T18:37:27.291Z,9.60
2018-11-05T18:40:01.614Z,9.60
2018-11-05T18:42:36.601Z,9.70
2018-11-05T18:45:11.415Z,9.70
2018-11-05T18:47:46.123Z,9.70
2018-11-05T18:50:27.181Z,9.80
2018-11-05T18:53:01.623Z,9.70
2018-11-05T18:55:36.399Z,9.70
2018-11-05T18:58:11.099Z,9.60
2018-11-05T19:00:46.338Z,9.60
2018-11-05T19:03:20.692Z,9.60
2018-11-05T19:05:55.577Z,9.70
2018-11-05T19:08:30.094Z,9.70
2018-11-05T19:11:04.933Z,9.80
2018-11-05T19:13:40.325Z,9.80
2018-11-05T19:16:15.017Z,9.90
2018-11-05T19:18:50.360Z,9.90
2018-11-05T19:21:25.266Z,9.90
2018-11-05T19:24:00.124Z,9.90
2018-11-05T19:26:35.290Z,10.00
2018-11-05T19:29:10.294Z,10.00
2018-11-05T19:31:44.786Z,10.10
2018-11-05T19:34:19.206Z,10.10
2018-11-05T19:36:53.931Z,10.10
2018-11-05T19:39:28.962Z,10.10
2018-11-05T19:42:03.841Z,10.10
2018-11-05T19:44:38.275Z,10.10
2018-11-05T19:47:13.118Z,10.10
2018-11-05T19:49:48.319Z,10.10
2018-11-05T19:52:23.007Z,10.10
2018-11-05T19:54:58.266Z,10.10
2018-11-05T19:57:33.514Z,10.00
2018-11-05T20:00:16.547Z,10.00
2018-11-05T20:02:51.193Z,10.00
2018-11-05T20:05:26.073Z,10.00
2018-11-05T20:08:01.624Z,10.00
2018-11-05T20:10:36.452Z,10.00
2018-11-05T20:13:11.851Z,9.90
2018-11-05T20:15:46.719Z,9.90
2018-11-05T20:18:21.162Z,9.90
2018-11-05T20:20:56.023Z,9.90
2018-11-05T20:23:31.323Z,9.80
2018-11-05T20:26:06.000Z,9.70
2018-11-05T20:28:41.515Z,9.80
2018-11-05T20:31:16.059Z,9.80
2018-11-05T20:33:50.593Z,9.80
2018-11-05T20:36:25.560Z,9.80
2018-11-05T20:39:00.555Z,9.80
2018-11-05T20:41:35.535Z,9.80
2018-11-05T20:44:10.747Z,9.80
2018-11-05T20:46:45.523Z,9.90
2018-11-05T20:49:20.031Z,9.80
2018-11-05T20:51:54.335Z,9.70
2018-11-05T20:54:29.413Z,9.70
2018-11-05T20:57:03.739Z,9.70
2018-11-05T20:59:38.052Z,9.60
2018-11-05T21:02:14.218Z,9.60
2018-11-05T21:04:48.945Z,9.80
2018-11-05T21:07:23.608Z,9.60
2018-11-05T21:09:58.605Z,9.60
2018-11-05T21:12:33.692Z,9.60
2018-11-05T21:15:12.669Z,9.60
2018-11-05T21:17:47.854Z,9.60
2018-11-05T21:20:22.767Z,9.60
2018-11-05T21:22:57.300Z,9.60
2018-11-05T21:25:31.566Z,9.60
2018-11-05T21:28:06.162Z,9.50
2018-11-05T21:30:40.984Z,9.50
2018-11-05T21:33:15.172Z,9.40
2018-11-05T21:35:50.528Z,9.40
2018-11-05T21:38:25.305Z,9.40
2018-11-05T21:41:00.410Z,9.40
2018-11-05T21:43:34.720Z,9.40
2018-11-05T21:46:08.706Z,9.40
2018-11-05T21:48:43.843Z,9.20
2018-11-05T21:51:18.409Z,9.30
2018-11-05T21:53:52.610Z,9.30
2018-11-05T21:56:28.030Z,9.30
2018-11-05T21:59:02.918Z,9.30
2018-11-05T22:01:37.605Z,9.30
2018-11-05T22:04:12.374Z,9.30
2018-11-05T22:06:46.998Z,9.30
2018-11-05T22:09:21.508Z,9.40
2018-11-05T22:11:55.913Z,9.40
2018-11-05T22:14:30.181Z,9.50
2018-11-05T22:17:04.718Z,9.50
2018-11-05T22:19:38.915Z,9.60
2018-11-05T22:22:13.460Z,9.70
2018-11-05T22:24:48.637Z,9.80
2018-11-05T22:27:22.944Z,9.80
2018-11-05T22:29:58.026Z,9.80
2018-11-05T22:32:32.118Z,9.90
2018-11-05T22:35:07.184Z,9.90
2018-11-05T22:37:41.184Z,10.00
2018-11-05T22:40:15.736Z,10.00
2018-11-05T22:42:50.191Z,10.10
2018-11-05T22:45:25.469Z,10.10
2018-11-05T22:48:01.059Z,10.00
2018-11-05T22:50:35.471Z,10.00
2018-11-05T22:53:09.847Z,10.10
2018-11-05T22:55:44.419Z,10.10
2018-11-05T22:58:19.313Z,10.20
2018-11-05T23:00:59.126Z,10.10
2018-11-05T23:03:33.135Z,10.10
2018-11-05T23:06:07.452Z,10.10
2018-11-05T23:08:42.420Z,10.00
2018-11-05T23:11:17.388Z,10.00
2018-11-05T23:13:51.592Z,10.00
2018-11-05T23:16:25.732Z,9.90
2018-11-05T23:18:59.838Z,9.90
2018-11-05T23:21:34.264Z,9.90
2018-11-05T23:24:08.900Z,9.80
2018-11-05T23:26:43.305Z,9.80
2018-11-05T23:29:17.654Z,9.70
2018-11-05T23:31:53.004Z,9.70
2018-11-05T23:34:27.532Z,9.60
2018-11-05T23:37:01.575Z,9.60
2018-11-05T23:39:36.202Z,9.60
2018-11-05T23:42:10.442Z,9.50
2018-11-05T23:44:45.132Z,9.40
2018-11-05T23:47:19.530Z,9.40
2018-11-05T23:49:54.271Z,9.40
2018-11-05T23:52:29.937Z,9.40
2018-11-05T23:55:04.169Z,9.30
2018-11-05T23:57:38.611Z,9.30
